Time;durP1;ratioP1;P1;durP2;ratioP2;P2;SDS_P1;SDS_P2;PMS_P1;PMS_P2;Temp;Humidity;BMP_temperature;BMP_pressure;BME280_temperature;BME280_humidity;BME280_pressure;Samples;Min_cycle;Max_cycle;Signal;HPM_P1;HPM_P2
2021/11/30 00:01:50;;;;;;;9.47;4.10;;;3.00;99.90;;;;;;5010626;28;20026;-79
2021/11/30 00:04:17;;;;;;;9.20;3.63;;;3.00;99.90;;;;;;5007348;28;20045;-79
2021/11/30 00:06:44;;;;;;;7.50;3.90;;;3.00;99.90;;;;;;4999262;28;20021;-80
2021/11/30 00:12:02;;;;;;;6.60;3.70;;;3.00;99.90;;;;;;5020238;28;20026;-75
2021/11/30 00:14:28;;;;;;;6.20;4.43;;;3.00;99.90;;;;;;5000424;28;20041;-76
2021/11/30 00:16:56;;;;;;;8.07;3.83;;;3.00;99.90;;;;;;5026449;28;20024;-77
2021/11/30 00:19:21;;;;;;;8.93;4.03;;;3.10;99.90;;;;;;5025967;28;20025;-77
2021/11/30 00:21:47;;;;;;;10.53;3.83;;;3.10;99.90;;;;;;5018009;28;20017;-78
2021/11/30 00:24:13;;;;;;;10.80;3.80;;;3.10;99.90;;;;;;4994307;28;20037;-76
2021/11/30 00:26:38;;;;;;;9.20;4.00;;;3.10;99.90;;;;;;5024451;28;20025;-75
2021/11/30 00:29:04;;;;;;;9.53;3.87;;;3.20;99.90;;;;;;5009312;28;20029;-76
2021/11/30 00:31:30;;;;;;;10.70;4.00;;;3.20;99.90;;;;;;4999522;28;20021;-76
2021/11/30 00:33:55;;;;;;;10.30;4.37;;;3.20;99.90;;;;;;5030722;28;20037;-75
2021/11/30 00:36:21;;;;;;;10.93;4.20;;;3.20;99.90;;;;;;5031728;28;20021;-76
2021/11/30 00:38:47;;;;;;;7.00;3.97;;;3.30;99.90;;;;;;5030799;28;20029;-76
2021/11/30 00:41:12;;;;;;;7.47;3.97;;;3.30;99.90;;;;;;5013510;28;20021;-76
2021/11/30 00:43:39;;;;;;;8.27;3.90;;;3.30;99.90;;;;;;5006192;28;20025;-76
2021/11/30 00:46:28;;;;;;;8.77;4.20;;;3.30;99.90;;;;;;5015592;28;20045;-76
2021/11/30 00:48:54;;;;;;;9.03;4.23;;;3.30;99.90;;;;;;5015652;28;20053;-76
2021/11/30 00:51:21;;;;;;;8.87;4.07;;;3.40;99.90;;;;;;5016186;28;20052;-76
2021/11/30 00:53:49;;;;;;;11.20;4.10;;;3.30;99.90;;;;;;5033316;28;20068;-76
2021/11/30 00:56:16;;;;;;;8.73;4.20;;;3.30;99.90;;;;;;5015661;28;20025;-76
2021/11/30 00:58:43;;;;;;;5.97;3.70;;;3.30;99.90;;;;;;5015506;28;20022;-76
2021/11/30 01:01:08;;;;;;;5.57;3.53;;;3.30;99.90;;;;;;5033696;28;20033;-76
2021/11/30 01:03:34;;;;;;;8.70;4.27;;;3.40;99.90;;;;;;5033009;28;20033;-76
2021/11/30 01:06:00;;;;;;;8.20;4.17;;;3.30;99.90;;;;;;5015890;28;20102;-76
2021/11/30 01:08:26;;;;;;;10.27;4.07;;;3.40;99.90;;;;;;5015887;28;20029;-77
2021/11/30 01:10:52;;;;;;;9.43;4.00;;;3.40;99.90;;;;;;5015210;28;20079;-76
2021/11/30 01:13:19;;;;;;;10.07;4.30;;;3.40;99.90;;;;;;5033309;28;20099;-76
2021/11/30 01:15:45;;;;;;;7.67;3.90;;;3.40;99.90;;;;;;5014769;28;20072;-76
2021/11/30 01:18:11;;;;;;;6.90;3.50;;;3.30;99.90;;;;;;5033143;28;20017;-76
2021/11/30 01:20:37;;;;;;;10.23;4.00;;;3.30;99.90;;;;;;5032840;28;20029;-76
2021/11/30 01:23:04;;;;;;;9.83;3.67;;;3.40;99.90;;;;;;5033362;28;20036;-76
2021/11/30 01:25:30;;;;;;;7.63;3.73;;;3.40;99.90;;;;;;5033295;28;20024;-76
2021/11/30 01:27:56;;;;;;;6.73;3.70;;;3.40;99.90;;;;;;5014873;28;20370;-76
2021/11/30 01:30:22;;;;;;;8.77;3.60;;;3.40;99.90;;;;;;5033124;28;20343;-76
2021/11/30 01:32:48;;;;;;;7.93;4.03;;;3.50;99.90;;;;;;5014821;28;20032;-77
2021/11/30 01:35:16;;;;;;;9.17;3.43;;;3.40;99.90;;;;;;5015570;28;20017;-77
2021/11/30 01:37:43;;;;;;;8.60;3.47;;;3.50;99.90;;;;;;5015243;28;20466;-77
2021/11/30 01:40:14;;;;;;;9.80;4.07;;;3.50;99.90;;;;;;5015643;28;20024;-77
2021/11/30 01:42:46;;;;;;;6.70;3.63;;;3.50;99.90;;;;;;5014405;28;20021;-76
2021/11/30 01:45:21;;;;;;;6.90;3.42;;;3.50;99.90;;;;;;5033071;28;20045;-77
2021/11/30 01:48:10;;;;;;;7.43;3.27;;;3.50;99.90;;;;;;5032444;28;20025;-77
2021/11/30 01:50:38;;;;;;;7.83;3.60;;;3.50;99.90;;;;;;5015112;28;20028;-76
2021/11/30 01:53:05;;;;;;;8.67;3.67;;;3.50;99.90;;;;;;5032899;28;20339;-77
2021/11/30 01:55:31;;;;;;;5.63;3.03;;;3.50;99.90;;;;;;5015215;28;20048;-77
2021/11/30 01:57:58;;;;;;;5.30;3.30;;;3.50;99.90;;;;;;5032238;28;20115;-77
2021/11/30 02:00:24;;;;;;;8.03;3.00;;;3.60;99.90;;;;;;5032866;28;20032;-77
2021/11/30 02:02:51;;;;;;;7.17;3.10;;;3.50;99.90;;;;;;5014687;28;20447;-77
2021/11/30 02:05:17;;;;;;;10.10;3.80;;;3.50;99.90;;;;;;5032661;28;20028;-77
2021/11/30 02:07:42;;;;;;;8.93;3.23;;;3.50;99.90;;;;;;5014724;28;20022;-77
2021/11/30 02:10:10;;;;;;;5.50;3.13;;;3.50;99.90;;;;;;5015397;28;20028;-77
2021/11/30 02:12:38;;;;;;;8.23;3.37;;;3.50;99.90;;;;;;5015629;28;20079;-77
2021/11/30 02:15:06;;;;;;;9.33;3.17;;;3.50;99.90;;;;;;5015281;28;20041;-77
2021/11/30 02:17:32;;;;;;;10.23;3.00;;;3.50;99.90;;;;;;5015503;28;20028;-77
2021/11/30 02:19:59;;;;;;;6.00;3.20;;;3.50;99.90;;;;;;5014942;28;20369;-77
2021/11/30 02:22:26;;;;;;;7.80;3.10;;;3.50;99.90;;;;;;5032797;28;20445;-77
2021/11/30 02:24:52;;;;;;;6.93;3.70;;;3.50;99.90;;;;;;5014914;28;20036;-77
2021/11/30 02:27:19;;;;;;;8.87;3.50;;;3.50;99.90;;;;;;5015184;28;20025;-77
2021/11/30 02:29:45;;;;;;;6.80;3.43;;;3.50;99.90;;;;;;5014628;28;20159;-77
2021/11/30 02:32:10;;;;;;;6.30;3.60;;;3.50;99.90;;;;;;5015398;28;20108;-77
2021/11/30 02:34:37;;;;;;;6.10;3.20;;;3.50;99.90;;;;;;5032434;28;20029;-77
2021/11/30 02:37:13;;;;;;;6.83;3.50;;;3.50;99.90;;;;;;5014328;28;20036;-77
2021/11/30 02:39:43;;;;;;;4.23;2.90;;;3.50;99.90;;;;;;5032189;28;20056;-75
2021/11/30 02:42:09;;;;;;;9.17;3.30;;;3.50;99.90;;;;;;5032459;28;20561;-77
2021/11/30 02:44:36;;;;;;;6.50;3.43;;;3.50;99.90;;;;;;5014663;28;20093;-76
2021/11/30 02:47:11;;;;;;;10.17;3.53;;;3.50;99.90;;;;;;5014339;28;20469;-76
2021/11/30 02:49:40;;;;;;;6.70;3.23;;;3.50;99.90;;;;;;5032604;28;20021;-77
2021/11/30 02:52:10;;;;;;;9.27;3.60;;;3.50;99.90;;;;;;5032387;28;20028;-77
2021/11/30 02:54:41;;;;;;;7.47;3.00;;;3.50;99.90;;;;;;5034151;28;20036;-78
2021/11/30 02:57:08;;;;;;;6.43;3.13;;;3.50;99.90;;;;;;5036572;28;20017;-77
2021/11/30 02:59:37;;;;;;;6.87;3.30;;;3.50;99.90;;;;;;5036642;28;20017;-78
2021/11/30 03:02:14;;;;;;;9.30;3.40;;;3.50;99.90;;;;;;5018182;28;20018;-78
2021/11/30 03:04:41;;;;;;;6.07;3.43;;;3.60;99.90;;;;;;5019009;28;20029;-76
2021/11/30 03:07:12;;;;;;;6.67;3.20;;;3.60;99.90;;;;;;5036510;28;20013;-78
2021/11/30 03:09:40;;;;;;;7.30;3.23;;;3.50;99.90;;;;;;5018982;28;20040;-77
2021/11/30 03:12:07;;;;;;;4.90;3.00;;;3.60;99.90;;;;;;5036181;28;20111;-77
2021/11/30 03:14:32;;;;;;;9.80;3.50;;;3.60;99.90;;;;;;5018446;28;20051;-78
2021/11/30 03:16:59;;;;;;;6.67;3.03;;;3.60;99.90;;;;;;5035830;28;20094;-77
2021/11/30 03:19:27;;;;;;;5.10;3.07;;;3.60;99.90;;;;;;5035934;28;20026;-77
2021/11/30 03:21:54;;;;;;;7.67;3.00;;;3.60;99.90;;;;;;5017561;28;20021;-77
2021/11/30 03:24:20;;;;;;;8.33;3.07;;;3.60;99.90;;;;;;5035923;28;20025;-77
2021/11/30 03:26:46;;;;;;;5.70;3.10;;;3.60;99.90;;;;;;5017720;28;20357;-77
2021/11/30 03:29:12;;;;;;;6.47;2.87;;;3.60;99.90;;;;;;5036140;28;20061;-77
2021/11/30 03:34:11;;;;;;;8.00;3.20;;;3.60;99.90;;;;;;5035126;28;20055;-77
2021/11/30 03:36:38;;;;;;;9.57;3.20;;;3.60;99.90;;;;;;5017921;28;20021;-78
2021/11/30 03:39:10;;;;;;;7.73;3.20;;;3.60;99.90;;;;;;5034945;28;20021;-77
2021/11/30 03:41:36;;;;;;;5.43;2.80;;;3.60;99.90;;;;;;5035427;28;20031;-77
2021/11/30 03:44:04;;;;;;;6.70;2.80;;;3.50;99.90;;;;;;5017298;28;20352;-77
2021/11/30 03:46:31;;;;;;;5.60;3.13;;;3.60;99.90;;;;;;5017302;28;20049;-77
2021/11/30 03:48:57;;;;;;;5.33;2.47;;;3.60;99.90;;;;;;5034928;28;20013;-77
2021/11/30 03:51:22;;;;;;;7.60;2.77;;;3.60;99.90;;;;;;5017614;28;20402;-77
2021/11/30 03:53:48;;;;;;;7.07;2.43;;;3.60;99.90;;;;;;5016939;28;20025;-77
2021/11/30 03:56:14;;;;;;;6.90;2.20;;;3.60;99.90;;;;;;5017596;28;20021;-77
2021/11/30 03:58:39;;;;;;;5.53;2.20;;;3.60;99.90;;;;;;5017648;28;20167;-77
2021/11/30 04:01:05;;;;;;;5.20;1.93;;;3.60;99.90;;;;;;5016921;28;20036;-77
2021/11/30 04:03:33;;;;;;;3.70;1.93;;;3.50;99.90;;;;;;5035132;28;20036;-77
2021/11/30 04:05:59;;;;;;;2.17;1.70;;;3.50;99.90;;;;;;5034568;28;20075;-77
2021/11/30 04:08:25;;;;;;;4.07;1.97;;;3.50;99.90;;;;;;5017517;28;20033;-77
2021/11/30 04:10:51;;;;;;;5.17;1.83;;;3.40;99.90;;;;;;5017184;28;20025;-77
2021/11/30 04:13:16;;;;;;;3.87;1.97;;;3.40;99.90;;;;;;5017223;28;20038;-77
2021/11/30 04:15:42;;;;;;;4.00;1.57;;;3.40;99.90;;;;;;5017665;28;20032;-78
2021/11/30 04:18:08;;;;;;;3.87;1.73;;;3.30;99.90;;;;;;5016802;28;20029;-76
2021/11/30 04:20:34;;;;;;;4.63;1.87;;;3.30;99.90;;;;;;5035231;28;20028;-77
2021/11/30 04:23:00;;;;;;;4.03;1.73;;;3.30;99.90;;;;;;5034480;28;20033;-77
2021/11/30 04:25:25;;;;;;;4.43;1.80;;;3.30;99.90;;;;;;5017259;28;20108;-77
2021/11/30 04:27:51;;;;;;;4.67;1.97;;;3.30;99.90;;;;;;5016670;28;20025;-77
2021/11/30 04:30:17;;;;;;;3.33;1.63;;;3.30;99.90;;;;;;5016755;28;20032;-77
2021/11/30 04:32:42;;;;;;;5.30;2.00;;;3.30;99.90;;;;;;5017089;28;20021;-77
2021/11/30 04:35:09;;;;;;;3.13;1.77;;;3.30;99.90;;;;;;5016316;28;20018;-77
2021/11/30 04:37:35;;;;;;;3.23;1.70;;;3.30;99.90;;;;;;5016982;28;20032;-77
2021/11/30 04:40:01;;;;;;;3.20;1.80;;;3.20;99.90;;;;;;5016414;28;20017;-78
2021/11/30 04:42:27;;;;;;;2.07;1.47;;;3.20;99.90;;;;;;5034546;28;20450;-77
2021/11/30 04:45:18;;;;;;;3.50;1.60;;;3.20;99.90;;;;;;5033696;28;20064;-77
2021/11/30 04:47:43;;;;;;;3.43;1.60;;;3.20;99.90;;;;;;5033827;28;20072;-77
2021/11/30 04:50:23;;;;;;;6.10;1.93;;;3.20;99.90;;;;;;5015809;28;20037;-77
2021/11/30 04:52:51;;;;;;;2.40;1.60;;;3.20;99.90;;;;;;5015659;28;20021;-76
2021/11/30 04:55:30;;;;;;;2.00;1.43;;;3.20;99.90;;;;;;5016327;28;20496;-77
2021/11/30 04:58:00;;;;;;;4.73;1.60;;;3.20;99.90;;;;;;5015684;28;20032;-76
2021/11/30 05:00:28;;;;;;;4.23;1.70;;;3.10;99.90;;;;;;5033914;28;20024;-76
2021/11/30 05:02:53;;;;;;;2.90;1.83;;;3.10;99.90;;;;;;5033440;28;20032;-76
2021/11/30 05:05:19;;;;;;;6.73;2.07;;;3.10;99.90;;;;;;5033725;28;20018;-77
2021/11/30 05:07:46;;;;;;;8.33;1.97;;;3.10;99.90;;;;;;5033729;28;20351;-76
2021/11/30 05:10:17;;;;;;;3.97;1.80;;;3.00;99.90;;;;;;5015403;28;20369;-76
2021/11/30 05:12:43;;;;;;;7.35;2.08;;;3.00;99.90;;;;;;5016130;28;20025;-76
2021/11/30 05:15:10;;;;;;;8.47;2.00;;;2.90;99.90;;;;;;5015287;28;20129;-76
2021/11/30 05:17:35;;;;;;;3.97;1.80;;;2.90;99.90;;;;;;5015269;28;20029;-76
2021/11/30 05:20:03;;;;;;;7.00;2.00;;;2.90;99.90;;;;;;5032485;28;20072;-76
2021/11/30 05:22:29;;;;;;;3.53;1.90;;;2.80;99.90;;;;;;5015868;28;20022;-78
2021/11/30 05:24:54;;;;;;;4.80;2.20;;;2.80;99.90;;;;;;5033399;28;20078;-78
2021/11/30 05:27:20;;;;;;;6.43;1.90;;;2.70;99.90;;;;;;5016369;28;20068;-77
2021/11/30 05:29:46;;;;;;;6.13;2.10;;;2.70;99.90;;;;;;5033987;28;20017;-78
2021/11/30 05:32:12;;;;;;;6.63;2.23;;;2.70;99.90;;;;;;5013779;28;20028;-77
2021/11/30 05:34:38;;;;;;;4.97;2.20;;;2.60;99.90;;;;;;5015839;28;20033;-77
2021/11/30 05:37:04;;;;;;;4.90;2.20;;;2.60;99.90;;;;;;5015373;28;20049;-77
2021/11/30 05:39:29;;;;;;;5.00;2.20;;;2.50;99.90;;;;;;5015813;28;20099;-77
2021/11/30 05:41:55;;;;;;;4.23;2.10;;;2.50;99.90;;;;;;5000793;28;20025;-77
2021/11/30 05:44:20;;;;;;;7.43;2.17;;;2.50;99.90;;;;;;4996213;28;20037;-77
2021/11/30 05:46:48;;;;;;;8.23;2.50;;;2.50;99.90;;;;;;4995923;28;20041;-78
2021/11/30 05:49:14;;;;;;;3.63;2.10;;;2.50;99.90;;;;;;4995565;28;20052;-78
2021/11/30 05:51:40;;;;;;;5.50;2.20;;;2.50;99.90;;;;;;5005657;28;20029;-78
2021/11/30 05:54:06;;;;;;;5.63;2.57;;;2.40;99.90;;;;;;5030026;28;20036;-77
2021/11/30 05:56:31;;;;;;;5.53;2.40;;;2.40;99.90;;;;;;4995384;28;20524;-77
2021/11/30 05:58:57;;;;;;;3.87;2.37;;;2.40;99.90;;;;;;5004743;28;20025;-77
2021/11/30 06:01:29;;;;;;;5.77;2.27;;;2.40;99.90;;;;;;5009088;28;20361;-78
2021/11/30 06:04:01;;;;;;;4.80;2.40;;;2.30;99.90;;;;;;5024881;28;20487;-77
2021/11/30 06:06:29;;;;;;;5.45;2.55;;;2.30;99.90;;;;;;5006621;28;20029;-77
2021/11/30 06:08:55;;;;;;;4.67;2.37;;;2.30;99.90;;;;;;5020582;28;20053;-76
2021/11/30 06:11:22;;;;;;;5.40;2.40;;;2.30;99.90;;;;;;5025206;28;20437;-77
2021/11/30 06:13:47;;;;;;;4.43;2.47;;;2.30;99.90;;;;;;4999587;28;20083;-77
2021/11/30 06:16:13;;;;;;;6.30;2.40;;;2.20;99.90;;;;;;4997584;28;20033;-77
2021/11/30 06:18:39;;;;;;;5.40;2.10;;;2.20;99.90;;;;;;5014056;28;20455;-80
2021/11/30 06:21:04;;;;;;;9.17;2.83;;;2.20;99.90;;;;;;5003299;28;20485;-79
2021/11/30 06:23:30;;;;;;;5.57;2.50;;;2.20;99.90;;;;;;5032849;28;20064;-80
2021/11/30 06:25:56;;;;;;;6.20;2.30;;;2.20;99.90;;;;;;5032909;28;20469;-80
2021/11/30 06:28:21;;;;;;;5.37;2.40;;;2.10;99.90;;;;;;5006335;28;20072;-84
2021/11/30 06:30:47;;;;;;;3.77;2.10;;;2.10;99.90;;;;;;5005811;28;20384;-80
2021/11/30 06:33:13;;;;;;;6.50;3.00;;;2.10;99.90;;;;;;5018927;28;20033;-80
2021/11/30 06:35:38;;;;;;;5.07;2.77;;;2.10;99.90;;;;;;5018924;28;20105;-80
2021/11/30 06:38:05;;;;;;;4.87;2.37;;;2.10;99.90;;;;;;5018901;28;20059;-80
2021/11/30 06:40:31;;;;;;;5.77;3.00;;;2.10;99.90;;;;;;5037298;28;20060;-80
2021/11/30 06:42:57;;;;;;;5.93;2.60;;;2.10;99.90;;;;;;5036581;28;20020;-80
2021/11/30 06:45:22;;;;;;;8.73;3.50;;;2.00;99.90;;;;;;5037263;28;20049;-80
2021/11/30 06:47:48;;;;;;;5.00;2.73;;;2.00;99.90;;;;;;5019935;28;20022;-80
2021/11/30 06:50:14;;;;;;;4.10;2.60;;;2.00;99.90;;;;;;5019369;28;20037;-80
2021/11/30 06:52:40;;;;;;;10.17;2.80;;;2.00;99.90;;;;;;5019563;28;20031;-80
2021/11/30 06:55:08;;;;;;;5.07;2.40;;;1.90;99.90;;;;;;5036400;28;20071;-80
2021/11/30 06:57:35;;;;;;;5.57;2.73;;;1.90;99.90;;;;;;5037112;28;20026;-80
2021/11/30 07:00:04;;;;;;;4.40;2.77;;;1.90;99.90;;;;;;5019155;28;20025;-80
2021/11/30 07:02:30;;;;;;;6.37;2.57;;;1.90;99.90;;;;;;5019851;28;20049;-80
2021/11/30 07:04:59;;;;;;;6.47;3.23;;;1.80;99.90;;;;;;5018433;28;20037;-79
2021/11/30 07:07:49;;;;;;;4.37;2.90;;;1.80;99.90;;;;;;5019606;28;20037;-80
2021/11/30 07:15:41;;;;;;;4.03;2.23;;;1.80;99.90;;;;;;5036820;28;20039;-80
2021/11/30 07:18:07;;;;;;;7.63;2.73;;;1.80;99.90;;;;;;5036287;28;20025;-79
2021/11/30 07:20:32;;;;;;;7.27;2.90;;;1.80;99.90;;;;;;5019245;28;20352;-80
2021/11/30 07:22:58;;;;;;;6.10;2.73;;;1.80;99.90;;;;;;5018469;28;20025;-80
2021/11/30 07:25:25;;;;;;;7.13;2.70;;;1.80;99.90;;;;;;5018965;28;20022;-80
2021/11/30 07:27:52;;;;;;;6.07;2.87;;;1.90;99.90;;;;;;5018985;28;20128;-80
2021/11/30 07:30:18;;;;;;;6.87;2.60;;;1.80;99.90;;;;;;5005750;28;20112;-80
2021/11/30 07:32:44;;;;;;;7.50;2.53;;;1.90;99.90;;;;;;5009293;28;20105;-79
2021/11/30 07:35:10;;;;;;;4.63;2.50;;;1.90;99.90;;;;;;5026037;28;20024;-80
2021/11/30 07:37:35;;;;;;;4.60;2.40;;;1.90;99.90;;;;;;5009755;28;20460;-80
2021/11/30 07:40:01;;;;;;;5.73;2.67;;;1.90;99.90;;;;;;5022601;28;20481;-79
2021/11/30 07:42:30;;;;;;;6.67;2.50;;;1.90;99.90;;;;;;5007854;28;20117;-79
2021/11/30 07:44:57;;;;;;;3.50;2.13;;;1.90;99.90;;;;;;5019734;28;20489;-77
2021/11/30 07:47:22;;;;;;;4.50;2.30;;;2.00;99.90;;;;;;4994644;28;20125;-79
2021/11/30 07:49:48;;;;;;;4.70;2.53;;;2.00;99.90;;;;;;4997516;28;20104;-79
2021/11/30 07:52:14;;;;;;;3.07;1.90;;;2.00;99.90;;;;;;4997086;28;20077;-79
2021/11/30 07:54:40;;;;;;;6.97;2.90;;;2.00;99.90;;;;;;5014484;28;20014;-78
2021/11/30 07:57:05;;;;;;;4.40;2.10;;;2.00;99.90;;;;;;5013823;28;20065;-79
2021/11/30 07:59:32;;;;;;;4.23;2.33;;;2.10;99.90;;;;;;5014372;28;20018;-79
2021/11/30 08:01:58;;;;;;;6.40;2.27;;;2.00;99.90;;;;;;5014990;28;20025;-79
2021/11/30 08:04:24;;;;;;;5.60;2.60;;;2.00;99.90;;;;;;5014154;28;20022;-79
2021/11/30 08:06:50;;;;;;;4.33;2.27;;;2.00;99.90;;;;;;4996341;28;20020;-80
2021/11/30 08:09:16;;;;;;;4.80;2.20;;;1.90;99.90;;;;;;5019256;28;20342;-80
2021/11/30 08:11:42;;;;;;;5.27;2.63;;;2.00;99.90;;;;;;5035342;28;20022;-80
2021/11/30 08:14:08;;;;;;;5.67;2.80;;;1.90;99.90;;;;;;5016911;28;20120;-80
2021/11/30 08:16:33;;;;;;;7.07;2.80;;;1.90;99.90;;;;;;5013946;28;20030;-80
2021/11/30 08:18:59;;;;;;;3.87;2.33;;;1.90;99.90;;;;;;4997514;28;20026;-79
2021/11/30 08:21:24;;;;;;;3.77;2.23;;;1.90;99.90;;;;;;5015372;28;20036;-80
2021/11/30 08:23:50;;;;;;;5.33;2.23;;;1.90;99.90;;;;;;4998243;28;20566;-80
2021/11/30 08:26:16;;;;;;;9.57;2.17;;;1.90;99.90;;;;;;4996553;28;20036;-80
2021/11/30 08:28:41;;;;;;;6.03;2.83;;;2.00;99.90;;;;;;5015760;28;20026;-80
2021/11/30 08:31:07;;;;;;;4.47;2.30;;;2.00;99.90;;;;;;4997467;28;20112;-79
2021/11/30 08:33:33;;;;;;;6.33;2.17;;;2.00;99.90;;;;;;4997985;28;20090;-80
2021/11/30 08:35:59;;;;;;;8.73;2.10;;;2.10;99.90;;;;;;5013781;28;20531;-79
2021/11/30 08:38:25;;;;;;;3.67;2.37;;;2.10;99.90;;;;;;5013513;28;20454;-79
2021/11/30 08:40:51;;;;;;;7.73;2.90;;;2.10;99.90;;;;;;5014944;28;20021;-80
2021/11/30 08:43:17;;;;;;;6.07;3.13;;;2.10;99.90;;;;;;5014471;28;20347;-80
2021/11/30 08:45:43;;;;;;;5.63;2.60;;;2.10;99.90;;;;;;4986381;28;20042;-80
2021/11/30 08:48:09;;;;;;;3.77;2.57;;;2.10;99.90;;;;;;4982843;28;20037;-79
2021/11/30 08:50:35;;;;;;;5.30;2.47;;;2.10;99.90;;;;;;4989490;28;20026;-80
2021/11/30 08:53:02;;;;;;;4.10;2.30;;;2.10;99.90;;;;;;4992432;28;20027;-80
2021/11/30 08:55:28;;;;;;;5.53;2.57;;;2.10;99.90;;;;;;4987714;28;20026;-79
2021/11/30 08:57:54;;;;;;;5.77;2.37;;;2.10;99.90;;;;;;4989894;28;20157;-79
2021/11/30 09:00:26;;;;;;;4.17;2.47;;;2.10;99.90;;;;;;4994257;28;20052;-79
2021/11/30 09:02:52;;;;;;;4.47;2.37;;;2.00;99.90;;;;;;5001138;28;20026;-79
2021/11/30 09:05:21;;;;;;;4.03;2.40;;;2.10;99.90;;;;;;4982676;28;20770;-79
2021/11/30 09:07:47;;;;;;;4.00;2.40;;;2.00;99.90;;;;;;5006685;28;20088;-79
2021/11/30 09:10:13;;;;;;;5.87;2.47;;;1.90;99.90;;;;;;4992966;28;20034;-79
2021/11/30 09:12:39;;;;;;;3.47;2.00;;;2.00;99.90;;;;;;4993801;28;20056;-79
2021/11/30 09:15:07;;;;;;;5.80;2.67;;;1.90;99.90;;;;;;4992932;28;20048;-79
2021/11/30 09:17:36;;;;;;;5.47;1.90;;;1.90;99.90;;;;;;4993655;28;20030;-80
2021/11/30 09:20:03;;;;;;;5.47;2.30;;;1.90;99.90;;;;;;4992609;28;20474;-79
2021/11/30 09:22:29;;;;;;;3.47;2.17;;;1.90;99.90;;;;;;4990510;28;20466;-80
2021/11/30 09:24:57;;;;;;;5.03;2.17;;;1.90;99.90;;;;;;5003169;28;20534;-80
2021/11/30 09:27:25;;;;;;;6.07;2.00;;;1.90;99.90;;;;;;4991873;28;20037;-81
2021/11/30 09:29:52;;;;;;;3.43;2.30;;;1.90;99.90;;;;;;4990543;28;20025;-80
2021/11/30 09:32:17;;;;;;;4.20;2.50;;;1.90;99.90;;;;;;5010569;28;20505;-80
2021/11/30 09:34:43;;;;;;;4.40;2.20;;;1.90;99.90;;;;;;4992768;28;20482;-79
2021/11/30 09:37:10;;;;;;;3.23;2.20;;;2.00;99.90;;;;;;4985004;28;20198;-78
2021/11/30 09:39:35;;;;;;;6.50;2.60;;;2.00;99.90;;;;;;4968050;28;20420;-80
2021/11/30 09:42:03;;;;;;;5.67;2.27;;;2.10;99.90;;;;;;4990395;28;20622;-78
2021/11/30 09:44:31;;;;;;;5.27;2.20;;;2.10;99.90;;;;;;4990301;28;20026;-80
2021/11/30 09:47:01;;;;;;;4.17;2.43;;;2.10;99.90;;;;;;5006770;28;20046;-80
2021/11/30 09:49:27;;;;;;;4.70;2.70;;;2.10;99.90;;;;;;5003262;28;20071;-81
2021/11/30 09:51:53;;;;;;;3.50;2.60;;;2.10;99.90;;;;;;5009028;28;20033;-80
2021/11/30 09:54:19;;;;;;;4.87;2.30;;;2.10;99.90;;;;;;4991139;28;20306;-82
2021/11/30 09:56:45;;;;;;;3.97;2.10;;;2.10;99.90;;;;;;4996615;28;20113;-80
2021/11/30 09:59:11;;;;;;;5.50;2.50;;;2.10;99.90;;;;;;5001472;28;20030;-81
2021/11/30 10:01:37;;;;;;;5.23;2.10;;;2.10;99.90;;;;;;5016267;28;20515;-82
2021/11/30 10:04:03;;;;;;;4.03;2.07;;;2.20;99.90;;;;;;4991965;28;20029;-82
2021/11/30 10:06:30;;;;;;;5.47;2.07;;;2.20;99.90;;;;;;4998468;28;20484;-81
2021/11/30 10:08:57;;;;;;;3.53;2.23;;;2.20;99.90;;;;;;5011464;28;20021;-81
2021/11/30 10:11:35;;;;;;;4.43;2.00;;;2.20;99.90;;;;;;5008451;28;20033;-80
2021/11/30 10:14:13;;;;;;;3.57;1.87;;;2.20;99.90;;;;;;4995919;28;20037;-80
2021/11/30 10:16:40;;;;;;;4.90;2.40;;;2.20;99.90;;;;;;5022441;28;20058;-79
2021/11/30 10:19:06;;;;;;;3.57;1.90;;;2.30;99.90;;;;;;5008761;28;20022;-80
2021/11/30 10:21:34;;;;;;;3.90;2.07;;;2.30;99.90;;;;;;4991934;28;20026;-80
2021/11/30 10:24:07;;;;;;;2.53;1.70;;;2.30;99.90;;;;;;4993822;28;20088;-79
2021/11/30 10:26:41;;;;;;;2.83;1.70;;;2.40;99.90;;;;;;5001457;28;20032;-82
2021/11/30 10:29:12;;;;;;;3.20;1.70;;;2.40;99.90;;;;;;5022340;28;20022;-80
2021/11/30 10:31:42;;;;;;;2.30;1.40;;;2.50;99.90;;;;;;4998997;28;20026;-80
2021/11/30 10:34:17;;;;;;;2.77;1.60;;;2.50;99.90;;;;;;5009200;28;20044;-81
2021/11/30 10:36:54;;;;;;;5.27;1.67;;;2.50;99.90;;;;;;5016169;28;20084;-80
2021/11/30 10:39:23;;;;;;;2.67;1.60;;;2.60;99.90;;;;;;5002631;28;20087;-81
2021/11/30 10:41:51;;;;;;;6.17;2.10;;;2.50;99.90;;;;;;5000339;28;20021;-80
2021/11/30 10:44:28;;;;;;;5.23;2.00;;;2.60;99.90;;;;;;5020337;28;20034;-82
2021/11/30 10:47:10;;;;;;;2.93;1.70;;;2.60;99.90;;;;;;4999163;28;20057;-82
2021/11/30 10:49:53;;;;;;;2.83;1.60;;;2.60;99.90;;;;;;5004094;28;20030;-80
2021/11/30 10:52:32;;;;;;;5.13;1.63;;;2.60;99.90;;;;;;5019268;28;20274;-81
2021/11/30 10:55:09;;;;;;;3.27;1.50;;;2.60;99.90;;;;;;5019359;28;20022;-83
2021/11/30 10:57:37;;;;;;;3.30;1.80;;;2.70;99.90;;;;;;5018666;28;20041;-82
2021/11/30 11:00:29;;;;;;;6.33;1.70;;;2.70;99.90;;;;;;4997451;28;20025;-81
2021/11/30 11:03:05;;;;;;;;;;;2.70;99.90;;;;;;4993847;28;20041;-79
2021/11/30 11:05:34;;;;;;;3.13;1.80;;;2.70;99.90;;;;;;5001622;28;19913;-80
2021/11/30 11:08:09;;;;;;;5.13;1.60;;;2.70;99.90;;;;;;5017776;28;20025;-79
2021/11/30 11:10:37;;;;;;;3.53;1.70;;;2.70;99.90;;;;;;5021876;28;20021;-81
2021/11/30 11:13:19;;;;;;;5.33;1.63;;;2.70;99.90;;;;;;4995880;28;20034;-81
2021/11/30 11:15:45;;;;;;;2.20;1.55;;;2.70;99.90;;;;;;5001548;28;20033;-80
2021/11/30 11:18:25;;;;;;;3.10;1.53;;;2.80;99.90;;;;;;5002977;28;20038;-81
2021/11/30 11:21:15;;;;;;;4.60;2.00;;;2.70;99.90;;;;;;5005510;28;20018;-80
2021/11/30 11:23:44;;;;;;;2.60;1.67;;;2.70;99.90;;;;;;5025273;28;20087;-82
2021/11/30 11:26:25;;;;;;;5.00;1.40;;;2.70;99.90;;;;;;5020401;28;20026;-82
2021/11/30 11:28:55;;;;;;;1.63;1.10;;;2.70;99.90;;;;;;5005192;28;20057;-81
2021/11/30 11:31:23;;;;;;;5.00;1.57;;;2.70;99.90;;;;;;5021033;28;20105;-81
2021/11/30 11:33:50;;;;;;;3.10;1.43;;;2.70;99.90;;;;;;5020535;28;20112;-79
2021/11/30 11:36:16;;;;;;;2.30;1.33;;;2.60;99.90;;;;;;5003205;28;20033;-81
2021/11/30 11:38:41;;;;;;;2.23;1.30;;;2.70;99.90;;;;;;5003290;28;20108;-80
2021/11/30 11:41:09;;;;;;;3.13;1.27;;;2.70;99.90;;;;;;5003395;28;20026;-81
2021/11/30 11:43:39;;;;;;;2.50;1.30;;;2.70;99.90;;;;;;5004745;28;20041;-83
2021/11/30 11:46:14;;;;;;;4.77;1.37;;;2.70;99.90;;;;;;5002615;28;20065;-81
2021/11/30 11:48:41;;;;;;;3.60;1.40;;;2.70;99.90;;;;;;5021358;28;20026;-83
2021/11/30 11:51:09;;;;;;;2.13;1.37;;;2.70;99.90;;;;;;4994800;28;20148;-80
2021/11/30 11:53:48;;;;;;;1.80;1.30;;;2.70;99.90;;;;;;5007869;28;20053;-79
2021/11/30 11:56:18;;;;;;;2.03;1.33;;;2.70;99.90;;;;;;5012666;28;20068;-82
2021/11/30 11:58:47;;;;;;;4.13;1.40;;;2.70;99.90;;;;;;5031518;28;20025;-82
2021/11/30 12:01:20;;;;;;;2.90;1.20;;;2.70;99.90;;;;;;5005699;28;20030;-81
2021/11/30 12:03:55;;;;;;;2.53;1.43;;;2.70;99.90;;;;;;5008432;28;20029;-81
2021/11/30 12:06:25;;;;;;;2.93;1.20;;;2.70;99.90;;;;;;5005984;28;20025;-82
2021/11/30 12:09:23;;;;;;;2.13;1.27;;;2.70;99.90;;;;;;5001173;28;20068;-82
2021/11/30 12:11:54;;;;;;;3.70;1.30;;;2.70;99.90;;;;;;4994186;28;20037;-82
2021/11/30 12:14:32;;;;;;;1.90;1.23;;;2.60;99.90;;;;;;5009299;28;20418;-81
2021/11/30 12:17:01;;;;;;;2.77;1.40;;;2.60;99.90;;;;;;4997978;28;20033;-81
2021/11/30 12:19:28;;;;;;;2.47;1.23;;;2.70;99.90;;;;;;4993182;28;20084;-81
2021/11/30 12:21:54;;;;;;;3.20;1.17;;;2.60;99.90;;;;;;4999684;28;20037;-79
2021/11/30 12:24:33;;;;;;;4.00;1.27;;;2.60;99.90;;;;;;5019340;28;20030;-80
2021/11/30 12:27:01;;;;;;;1.67;1.20;;;2.70;99.90;;;;;;5003369;28;20383;-84
2021/11/30 12:29:30;;;;;;;2.47;1.47;;;2.70;99.90;;;;;;5007885;28;20033;-80
2021/11/30 12:31:57;;;;;;;3.63;1.70;;;2.60;99.90;;;;;;5010358;28;20108;-82
2021/11/30 12:34:34;;;;;;;3.03;1.40;;;2.70;99.90;;;;;;4998839;28;20116;-78
2021/11/30 12:37:09;;;;;;;1.73;1.13;;;2.70;99.90;;;;;;5003300;28;20025;-79
2021/11/30 12:40:07;;;;;;;2.50;1.53;;;2.70;99.90;;;;;;5004009;28;20036;-86
2021/11/30 12:42:41;;;;;;;3.67;1.60;;;2.70;99.90;;;;;;5023843;28;20014;-80
2021/11/30 12:45:10;;;;;;;2.83;1.30;;;2.70;99.90;;;;;;5006736;28;20478;-79
2021/11/30 12:47:36;;;;;;;3.57;1.40;;;2.70;99.90;;;;;;5002293;28;20153;-78
2021/11/30 12:50:06;;;;;;;5.30;1.27;;;2.70;99.90;;;;;;5004734;28;20573;-79
2021/11/30 12:52:34;;;;;;;4.13;1.87;;;2.70;99.90;;;;;;5011768;28;20108;-79
2021/11/30 12:55:00;;;;;;;2.07;1.20;;;2.70;99.90;;;;;;5005490;28;20084;-77
2021/11/30 12:57:29;;;;;;;3.97;1.20;;;2.70;99.90;;;;;;4995969;28;20038;-79
2021/11/30 12:59:58;;;;;;;3.07;1.30;;;2.70;99.90;;;;;;5018994;28;20095;-79
2021/11/30 13:02:28;;;;;;;2.07;1.33;;;2.70;99.90;;;;;;5012490;28;20567;-78
2021/11/30 13:05:09;;;;;;;5.77;1.40;;;2.70;99.90;;;;;;5014260;28;20029;-79
2021/11/30 13:07:47;;;;;;;2.30;1.43;;;2.80;99.90;;;;;;5007993;28;20657;-78
2021/11/30 13:10:38;;;;;;;3.07;1.27;;;2.80;99.90;;;;;;4997325;28;20026;-79
2021/11/30 13:13:14;;;;;;;4.10;1.50;;;2.80;99.90;;;;;;5012355;28;20026;-77
2021/11/30 13:15:47;;;;;;;3.20;1.77;;;2.80;99.90;;;;;;5007466;28;20034;-79